createdAt,value
2018-11-04T00:00:17.686Z,28.10
2018-11-04T00:02:48.648Z,27.17
2018-11-04T00:05:19.109Z,26.50
2018-11-04T00:07:51.026Z,27.53
2018-11-04T00:10:22.421Z,29.10
2018-11-04T00:12:53.859Z,28.47
2018-11-04T00:15:24.870Z,27.03
2018-11-04T00:17:55.460Z,27.20
2018-11-04T00:20:26.041Z,26.30
2018-11-04T00:22:57.016Z,27.10
2018-11-04T00:25:28.108Z,27.00
2018-11-04T00:27:58.842Z,27.20
2018-11-04T00:30:29.928Z,27.13
2018-11-04T00:33:00.868Z,27.37
2018-11-04T00:35:31.782Z,26.37
2018-11-04T00:38:03.070Z,29.70
2018-11-04T00:40:33.835Z,27.90
2018-11-04T00:43:05.063Z,28.13
2018-11-04T00:45:35.535Z,29.50
2018-11-04T00:48:06.170Z,29.07
2018-11-04T00:50:37.237Z,28.87
2018-11-04T00:53:08.328Z,27.13
2018-11-04T00:55:38.614Z,27.50
2018-11-04T00:58:09.414Z,27.93
2018-11-04T01:00:40.381Z,27.07
2018-11-04T01:03:11.545Z,27.53
2018-11-04T01:05:42.239Z,27.30
2018-11-04T01:08:13.060Z,26.77
2018-11-04T01:10:44.051Z,28.93
2018-11-04T01:13:14.787Z,26.80
2018-11-04T01:15:45.570Z,27.77
2018-11-04T01:18:16.299Z,27.33
2018-11-04T01:20:46.834Z,27.30
2018-11-04T01:23:17.383Z,26.70
2018-11-04T01:25:47.912Z,26.97
2018-11-04T01:28:18.361Z,27.37
2018-11-04T01:30:49.353Z,26.57
2018-11-04T01:33:19.983Z,26.70
2018-11-04T01:35:50.829Z,27.27
2018-11-04T01:38:21.471Z,26.80
2018-11-04T01:40:51.453Z,27.13
2018-11-04T01:43:21.893Z,26.57
2018-11-04T01:45:52.567Z,27.37
2018-11-04T01:48:23.308Z,29.17
2018-11-04T01:50:53.923Z,28.40
2018-11-04T01:53:24.150Z,27.00
2018-11-04T01:55:54.669Z,27.93
2018-11-04T01:58:25.480Z,28.27
2018-11-04T02:00:55.947Z,28.57
2018-11-04T02:03:25.888Z,27.43
2018-11-04T02:05:56.162Z,27.33
2018-11-04T02:08:27.085Z,27.53
2018-11-04T02:10:57.577Z,27.87
2018-11-04T02:13:29.193Z,27.83
2018-11-04T02:16:00.258Z,28.73
2018-11-04T02:18:31.174Z,27.33
2018-11-04T02:21:01.084Z,28.50
2018-11-04T02:23:32.260Z,28.30
2018-11-04T02:26:02.949Z,29.80
2018-11-04T02:28:33.748Z,29.43
2018-11-04T02:31:04.399Z,28.40
2018-11-04T02:33:34.911Z,27.77
2018-11-04T02:36:06.350Z,29.13
2018-11-04T02:38:37.226Z,28.43
2018-11-04T02:41:08.275Z,28.50
2018-11-04T02:43:39.017Z,28.70
2018-11-04T02:46:09.955Z,27.73
2018-11-04T02:48:41.582Z,28.17
2018-11-04T02:51:12.320Z,26.87
2018-11-04T02:53:43.231Z,26.73
2018-11-04T02:56:14.405Z,25.37
2018-11-04T02:58:45.384Z,27.33
2018-11-04T03:01:16.935Z,24.70
2018-11-04T03:03:47.734Z,24.50
2018-11-04T03:06:18.595Z,25.10
2018-11-04T03:08:49.003Z,26.13
2018-11-04T03:11:19.707Z,25.77
2018-11-04T03:13:50.221Z,26.37
2018-11-04T03:16:21.119Z,26.23
2018-11-04T03:18:52.287Z,27.90
2018-11-04T03:21:23.192Z,25.37
2018-11-04T03:23:53.464Z,24.90
2018-11-04T03:26:24.362Z,25.47
2018-11-04T03:28:55.614Z,27.13
2018-11-04T03:31:26.384Z,28.40
2018-11-04T03:33:56.967Z,26.17
2018-11-04T03:36:27.843Z,30.23
2018-11-04T03:38:58.617Z,28.90
2018-11-04T03:41:29.598Z,27.77
2018-11-04T03:44:00.220Z,26.13
2018-11-04T03:46:31.660Z,28.90
2018-11-04T03:49:02.871Z,25.40
2018-11-04T03:51:34.467Z,52.53
2018-11-04T03:54:04.929Z,25.57
2018-11-04T03:56:35.845Z,25.80
2018-11-04T03:59:06.599Z,26.63
2018-11-04T04:01:37.905Z,33.57
2018-11-04T04:04:07.983Z,32.73
2018-11-04T04:06:38.141Z,35.57
2018-11-04T04:09:10.029Z,33.27
2018-11-04T04:11:40.978Z,32.33
2018-11-04T04:14:11.794Z,26.40
2018-11-04T04:16:42.406Z,29.23
2018-11-04T04:19:13.069Z,35.20
2018-11-04T04:21:43.467Z,42.63
2018-11-04T04:24:14.590Z,30.80
2018-11-04T04:26:45.245Z,31.20
2018-11-04T04:29:16.143Z,59.63
2018-11-04T04:31:46.994Z,45.23
2018-11-04T04:34:17.653Z,35.43
2018-11-04T04:36:48.415Z,31.97
2018-11-04T04:39:18.892Z,31.57
2018-11-04T04:41:49.706Z,29.67
2018-11-04T04:44:20.872Z,34.80
2018-11-04T04:46:51.769Z,41.80
2018-11-04T04:49:22.714Z,43.23
2018-11-04T04:51:53.493Z,30.13
2018-11-04T04:54:24.496Z,30.30
2018-11-04T04:56:56.065Z,33.80
2018-11-04T04:59:26.899Z,29.63
2018-11-04T05:01:57.455Z,28.47
2018-11-04T05:04:28.263Z,27.40
2018-11-04T05:06:59.219Z,23.53
2018-11-04T05:09:29.956Z,22.87
2018-11-04T05:12:00.003Z,23.13
2018-11-04T05:14:30.991Z,26.00
2018-11-04T05:17:02.013Z,23.50
2018-11-04T05:19:32.928Z,23.50
2018-11-04T05:22:03.588Z,21.60
2018-11-04T05:24:34.254Z,23.57
2018-11-04T05:27:05.248Z,21.17
2018-11-04T05:29:35.721Z,25.00
2018-11-04T05:32:06.516Z,23.77
2018-11-04T05:34:37.374Z,25.10
2018-11-04T05:37:08.338Z,20.60
2018-11-04T05:39:38.146Z,20.33
2018-11-04T05:42:09.093Z,21.40
2018-11-04T05:44:38.971Z,21.07
2018-11-04T05:47:09.758Z,19.47
2018-11-04T05:49:40.501Z,20.47
2018-11-04T05:52:11.368Z,22.67
2018-11-04T05:54:42.287Z,22.83
2018-11-04T05:57:12.548Z,22.93
2018-11-04T05:59:43.215Z,23.33
2018-11-04T06:02:13.085Z,23.03
2018-11-04T06:04:43.942Z,22.17
2018-11-04T06:07:13.787Z,23.87
2018-11-04T06:09:43.568Z,22.40
2018-11-04T06:12:13.401Z,22.27
2018-11-04T06:14:45.486Z,21.93
2018-11-04T06:17:17.492Z,23.93
2018-11-04T06:19:47.429Z,23.17
2018-11-04T06:22:18.275Z,23.80
2018-11-04T06:24:48.296Z,19.77
2018-11-04T06:27:18.145Z,20.67
2018-11-04T06:29:47.972Z,19.73
2018-11-04T06:32:17.808Z,19.80
2018-11-04T06:34:47.842Z,19.87
2018-11-04T06:37:17.567Z,21.03
2018-11-04T06:39:48.612Z,20.27
2018-11-04T06:42:19.740Z,18.83
2018-11-04T06:44:50.815Z,19.53
2018-11-04T06:47:22.126Z,19.33
2018-11-04T06:49:52.182Z,19.47
2018-11-04T06:52:23.693Z,19.33
2018-11-04T06:54:53.645Z,18.33
2018-11-04T06:57:24.784Z,18.50
2018-11-04T06:59:55.943Z,17.77
2018-11-04T07:02:27.441Z,16.60
2018-11-04T07:04:57.437Z,16.77
2018-11-04T07:07:28.132Z,15.30
2018-11-04T07:09:59.035Z,15.87
2018-11-04T07:12:29.631Z,15.13
2018-11-04T07:15:03.277Z,15.97
2018-11-04T07:17:33.767Z,14.90
2018-11-04T07:20:04.144Z,15.13
2018-11-04T07:22:34.539Z,13.93
2018-11-04T07:25:06.370Z,13.90
2018-11-04T07:27:36.981Z,13.53
2018-11-04T07:30:09.928Z,12.87
2018-11-04T07:32:41.726Z,12.43
2018-11-04T07:35:13.057Z,11.87
2018-11-04T07:37:44.110Z,12.00
2018-11-04T07:40:15.330Z,11.60
2018-11-04T07:42:46.480Z,12.63
2018-11-04T07:45:18.075Z,17.13
2018-11-04T07:47:49.406Z,12.37
2018-11-04T07:50:20.465Z,13.97
2018-11-04T07:52:51.182Z,13.23
2018-11-04T07:55:22.494Z,13.10
2018-11-04T07:57:53.643Z,13.23
2018-11-04T08:00:24.994Z,12.63
2018-11-04T08:02:56.277Z,12.07
2018-11-04T08:05:27.315Z,12.83
2018-11-04T08:07:58.320Z,12.23
2018-11-04T08:10:29.707Z,12.67
2018-11-04T08:13:00.791Z,12.93
2018-11-04T08:15:31.933Z,12.30
2018-11-04T08:18:02.675Z,12.27
2018-11-04T08:20:33.910Z,11.83
2018-11-04T08:23:05.098Z,11.80
2018-11-04T08:25:36.436Z,12.83
2018-11-04T08:28:07.992Z,11.77
2018-11-04T08:30:38.304Z,12.23
2018-11-04T08:33:09.736Z,12.17
2018-11-04T08:35:41.046Z,11.27
2018-11-04T08:38:12.156Z,11.70
2018-11-04T08:40:42.274Z,11.37
2018-11-04T08:43:13.250Z,11.03
2018-11-04T08:45:44.253Z,11.80
2018-11-04T08:48:15.348Z,10.63
2018-11-04T08:50:46.520Z,11.73
2018-11-04T08:53:17.441Z,10.10
2018-11-04T08:55:48.431Z,9.43
2018-11-04T08:58:19.540Z,10.10
2018-11-04T09:00:50.505Z,9.60
2018-11-04T09:03:21.293Z,9.40
2018-11-04T09:05:52.490Z,9.50
2018-11-04T09:08:24.058Z,8.40
2018-11-04T09:10:55.084Z,8.03
2018-11-04T09:13:26.051Z,8.00
2018-11-04T09:15:56.718Z,8.17
2018-11-04T09:18:27.457Z,8.30
2018-11-04T09:20:58.439Z,7.47
2018-11-04T09:23:30.024Z,8.10
2018-11-04T09:26:00.872Z,7.43
2018-11-04T09:28:31.683Z,7.27
2018-11-04T09:31:02.293Z,7.00
2018-11-04T09:33:32.154Z,5.40
2018-11-04T09:36:02.775Z,4.77
2018-11-04T09:38:33.982Z,5.23
2018-11-04T09:41:04.766Z,4.80
2018-11-04T09:43:35.653Z,5.60
2018-11-04T09:46:06.191Z,5.50
2018-11-04T09:48:36.332Z,5.10
2018-11-04T09:51:07.347Z,5.43
2018-11-04T09:53:38.392Z,3.00
2018-11-04T09:56:09.898Z,3.13
2018-11-04T09:58:41.236Z,4.07
2018-11-04T10:01:12.330Z,2.17
2018-11-04T10:03:43.084Z,4.93
2018-11-04T10:06:14.389Z,11.70
2018-11-04T10:08:45.367Z,12.13
2018-11-04T10:11:16.030Z,12.17
2018-11-04T10:13:46.826Z,12.50
2018-11-04T10:16:17.532Z,11.90
2018-11-04T10:18:48.368Z,13.43
2018-11-04T10:21:18.946Z,11.50
2018-11-04T10:23:49.686Z,12.03
2018-11-04T10:26:20.450Z,11.50
2018-11-04T10:28:50.538Z,11.37
2018-11-04T10:31:21.758Z,13.00
2018-11-04T10:33:52.913Z,11.93
2018-11-04T10:36:24.079Z,13.00
2018-11-04T10:38:55.060Z,11.17
2018-11-04T10:41:25.117Z,9.67
2018-11-04T10:43:55.943Z,10.60
2018-11-04T10:46:26.026Z,10.33
2018-11-04T10:48:56.547Z,10.47
2018-11-04T10:51:26.709Z,11.87
2018-11-04T10:53:57.525Z,11.40
2018-11-04T10:56:28.285Z,12.50
2018-11-04T10:58:58.358Z,12.20
2018-11-04T11:01:28.275Z,13.63
2018-11-04T11:03:58.725Z,12.70
2018-11-04T11:06:29.004Z,15.23
2018-11-04T11:08:58.899Z,11.83
2018-11-04T11:11:29.795Z,13.77
2018-11-04T11:14:00.649Z,13.37
2018-11-04T11:16:30.697Z,11.40
2018-11-04T11:19:01.984Z,11.07
2018-11-04T11:21:32.961Z,10.55
2018-11-04T11:24:03.733Z,16.33
2018-11-04T11:26:33.783Z,10.20
2018-11-04T11:29:04.497Z,8.80
2018-11-04T11:31:35.712Z,10.87
2018-11-04T11:34:06.709Z,10.67
2018-11-04T11:36:37.735Z,11.40
2018-11-04T11:39:12.197Z,9.60
2018-11-04T11:41:44.292Z,10.83
2018-11-04T11:44:14.536Z,10.73
2018-11-04T11:46:45.546Z,9.93
2018-11-04T11:49:16.358Z,9.40
2018-11-04T11:51:46.800Z,9.53
2018-11-04T11:54:18.022Z,9.80
2018-11-04T11:56:49.849Z,8.67
2018-11-04T11:59:21.016Z,8.20
2018-11-04T12:01:52.430Z,7.77
2018-11-04T12:04:23.678Z,8.90
2018-11-04T12:06:54.192Z,9.07
2018-11-04T12:09:25.016Z,9.87
2018-11-04T12:11:55.536Z,9.43
2018-11-04T12:14:26.700Z,8.80
2018-11-04T12:16:57.754Z,8.20
2018-11-04T12:19:28.759Z,6.97
2018-11-04T12:21:59.900Z,7.80
2018-11-04T12:24:30.463Z,7.93
2018-11-04T12:27:00.899Z,6.20
2018-11-04T12:29:32.129Z,6.90
2018-11-04T12:32:03.232Z,6.70
2018-11-04T12:34:34.126Z,6.10
2018-11-04T12:37:07.493Z,18.10
2018-11-04T12:39:38.453Z,6.20
2018-11-04T12:42:09.272Z,6.37
2018-11-04T12:44:40.326Z,7.47
2018-11-04T12:47:11.857Z,6.80
2018-11-04T12:49:43.074Z,6.10
2018-11-04T12:52:14.372Z,6.87
2018-11-04T12:54:44.712Z,6.20
2018-11-04T12:57:14.699Z,6.70
2018-11-04T12:59:45.792Z,5.80
2018-11-04T13:02:15.994Z,5.87
2018-11-04T13:04:46.903Z,5.33
2018-11-04T13:07:17.886Z,4.87
2018-11-04T13:09:48.792Z,5.33
2018-11-04T13:12:19.823Z,7.30
2018-11-04T13:14:49.950Z,5.50
2018-11-04T13:17:20.308Z,4.93
2018-11-04T13:22:16.400Z,5.47
2018-11-04T13:24:47.192Z,4.30
2018-11-04T13:27:18.460Z,5.20
2018-11-04T13:29:49.703Z,6.00
2018-11-04T13:32:19.593Z,4.80
2018-11-04T13:34:50.348Z,5.40
2018-11-04T13:37:21.077Z,5.33
2018-11-04T13:39:51.849Z,7.10
2018-11-04T13:42:22.994Z,5.47
2018-11-04T13:44:54.010Z,7.07
2018-11-04T13:47:25.059Z,7.63
2018-11-04T13:49:56.068Z,6.17
2018-11-04T13:52:26.730Z,6.03
2018-11-04T13:54:57.572Z,6.63
2018-11-04T13:57:28.952Z,5.27
2018-11-04T13:59:59.545Z,4.87
2018-11-04T14:02:30.335Z,4.83
2018-11-04T14:05:01.892Z,5.50
2018-11-04T14:07:32.669Z,6.20
2018-11-04T14:10:03.468Z,7.07
2018-11-04T14:12:33.843Z,7.17
2018-11-04T14:15:04.793Z,16.53
2018-11-04T14:17:35.613Z,11.27
2018-11-04T14:20:07.559Z,10.03
2018-11-04T14:22:38.952Z,9.70
2018-11-04T14:25:11.721Z,9.47
2018-11-04T14:27:42.096Z,9.47
2018-11-04T14:30:16.011Z,9.53
2018-11-04T14:32:46.707Z,9.67
2018-11-04T14:35:17.621Z,11.23
2018-11-04T14:37:48.386Z,10.40
2018-11-04T14:40:19.570Z,10.63
2018-11-04T14:42:51.193Z,10.20
2018-11-04T14:45:22.014Z,11.03
2018-11-04T14:47:52.742Z,9.10
2018-11-04T14:50:22.710Z,9.27
2018-11-04T14:52:53.380Z,9.37
2018-11-04T14:55:24.615Z,8.63
2018-11-04T14:57:55.320Z,8.90
2018-11-04T15:00:26.069Z,8.37
2018-11-04T15:02:56.649Z,7.93
2018-11-04T15:05:26.747Z,7.83
2018-11-04T15:07:57.607Z,8.23
2018-11-04T15:10:28.173Z,7.77
2018-11-04T15:12:58.964Z,7.63
2018-11-04T15:15:29.173Z,7.73
2018-11-04T15:17:59.475Z,8.10
2018-11-04T15:20:31.307Z,9.47
2018-11-04T15:23:02.655Z,9.57
2018-11-04T15:25:33.679Z,9.30
2018-11-04T15:28:04.532Z,10.40
2018-11-04T15:30:35.094Z,10.00
2018-11-04T15:33:05.608Z,10.13
2018-11-04T15:35:36.693Z,11.57
2018-11-04T15:38:08.213Z,11.93
2018-11-04T15:40:39.269Z,11.30
2018-11-04T15:43:10.851Z,10.47
2018-11-04T15:45:41.655Z,10.50
2018-11-04T15:48:12.512Z,12.53
2018-11-04T15:50:43.397Z,13.03
2018-11-04T15:53:14.567Z,15.13
2018-11-04T15:55:45.461Z,16.87
2018-11-04T15:58:16.346Z,16.50
2018-11-04T16:00:47.190Z,13.13
2018-11-04T16:03:17.209Z,13.37
2018-11-04T16:05:47.917Z,13.10
2018-11-04T16:08:18.702Z,12.90
2018-11-04T16:10:49.491Z,12.90
2018-11-04T16:13:20.056Z,17.80
2018-11-04T16:15:50.793Z,14.47
2018-11-04T16:18:21.591Z,13.03
2018-11-04T16:20:52.464Z,14.30
2018-11-04T16:23:24.067Z,12.53
2018-11-04T16:25:55.089Z,13.90
2018-11-04T16:28:25.927Z,13.40
2018-11-04T16:30:56.468Z,14.23
2018-11-04T16:33:26.916Z,14.60
2018-11-04T16:35:57.913Z,13.60
2018-11-04T16:38:28.874Z,15.23
2018-11-04T16:40:59.252Z,16.73
2018-11-04T16:43:30.481Z,19.93
2018-11-04T16:46:01.359Z,18.27
2018-11-04T16:48:31.998Z,19.80
2018-11-04T16:51:02.530Z,17.97
2018-11-04T16:53:33.101Z,20.20
2018-11-04T16:56:04.055Z,23.87
2018-11-04T16:58:33.958Z,25.37
2018-11-04T17:01:04.883Z,24.83
2018-11-04T17:03:35.344Z,25.17
2018-11-04T17:06:05.544Z,27.10
2018-11-04T17:08:36.546Z,26.97
2018-11-04T17:11:07.000Z,26.07
2018-11-04T17:13:37.719Z,29.70
2018-11-04T17:16:08.864Z,35.60
2018-11-04T17:18:39.346Z,35.50
2018-11-04T17:21:10.173Z,31.60
2018-11-04T17:23:41.096Z,30.43
2018-11-04T17:26:11.066Z,32.43
2018-11-04T17:28:42.071Z,38.17
2018-11-04T17:31:12.698Z,35.17
2018-11-04T17:33:42.734Z,33.07
2018-11-04T17:36:13.689Z,30.67
2018-11-04T17:38:44.472Z,28.50
2018-11-04T17:41:16.348Z,27.83
2018-11-04T17:43:48.639Z,27.93
2018-11-04T17:46:19.191Z,25.93
2018-11-04T17:48:50.564Z,28.87
2018-11-04T17:51:20.710Z,25.03
2018-11-04T17:53:51.187Z,23.37
2018-11-04T17:56:21.118Z,22.23
2018-11-04T17:58:52.062Z,18.80
2018-11-04T18:01:23.574Z,19.87
2018-11-04T18:03:54.648Z,20.50
2018-11-04T18:06:26.370Z,17.00
2018-11-04T18:08:58.347Z,16.00
2018-11-04T18:11:29.421Z,15.60
2018-11-04T18:14:00.305Z,13.57
2018-11-04T18:16:31.450Z,13.60
2018-11-04T18:19:03.501Z,12.50
2018-11-04T18:21:34.676Z,11.77
2018-11-04T18:24:05.016Z,12.13
2018-11-04T18:26:36.221Z,13.03
2018-11-04T18:29:07.398Z,11.77
2018-11-04T18:31:38.643Z,12.13
2018-11-04T18:34:09.863Z,9.93
2018-11-04T18:36:40.823Z,11.27
2018-11-04T18:39:11.491Z,12.13
2018-11-04T18:41:42.683Z,13.57
2018-11-04T18:44:13.007Z,16.73
2018-11-04T18:46:43.878Z,27.37
2018-11-04T18:49:14.736Z,40.37
2018-11-04T18:51:45.871Z,57.77
2018-11-04T18:54:17.153Z,72.80
2018-11-04T18:56:49.939Z,83.97
2018-11-04T18:59:20.854Z,101.57
2018-11-04T19:01:51.971Z,104.07
2018-11-04T19:04:23.026Z,105.40
2018-11-04T19:06:54.196Z,121.37
2018-11-04T19:09:24.587Z,124.00
2018-11-04T19:11:55.866Z,135.43
2018-11-04T19:14:26.365Z,138.00
2018-11-04T19:16:58.036Z,146.33
2018-11-04T19:19:28.976Z,141.80
2018-11-04T19:22:00.191Z,131.90
2018-11-04T19:24:31.147Z,136.13
2018-11-04T19:27:01.317Z,144.93
2018-11-04T19:29:32.036Z,120.90
2018-11-04T19:32:03.109Z,105.87
2018-11-04T19:34:35.200Z,96.40
2018-11-04T19:37:06.347Z,98.07
2018-11-04T19:39:37.567Z,91.17
2018-11-04T19:42:08.651Z,88.93
2018-11-04T19:44:40.296Z,90.10
2018-11-04T19:47:11.192Z,85.77
2018-11-04T19:49:41.869Z,83.50
2018-11-04T19:52:12.974Z,77.30
2018-11-04T19:54:43.459Z,72.23
2018-11-04T19:57:14.291Z,72.60
2018-11-04T19:59:45.398Z,72.80
2018-11-04T20:02:15.986Z,75.27
2018-11-04T20:04:47.289Z,75.83
2018-11-04T20:07:18.349Z,64.20
2018-11-04T20:09:49.474Z,62.57
2018-11-04T20:12:25.851Z,58.97
2018-11-04T20:14:56.788Z,59.90
2018-11-04T20:17:27.092Z,63.87
2018-11-04T20:20:03.844Z,63.50
2018-11-04T20:22:35.140Z,61.63
2018-11-04T20:26:14.909Z,60.53
2018-11-04T20:28:46.084Z,54.03
2018-11-04T20:31:23.183Z,56.13
2018-11-04T20:33:54.823Z,52.90
2018-11-04T20:36:25.979Z,50.83
2018-11-04T20:39:02.013Z,48.70
2018-11-04T20:41:34.047Z,49.40
2018-11-04T20:44:05.222Z,53.70
2018-11-04T20:46:36.600Z,61.97
2018-11-04T20:49:13.375Z,60.80
2018-11-04T20:51:44.607Z,60.23
2018-11-04T20:54:16.250Z,67.30
2018-11-04T20:56:52.781Z,74.73
2018-11-04T20:59:23.742Z,68.27
2018-11-04T21:01:54.833Z,73.50
2018-11-04T21:04:26.234Z,67.83
2018-11-04T21:06:56.983Z,70.03
2018-11-04T21:09:27.345Z,74.47
2018-11-04T21:11:57.678Z,75.40
2018-11-04T21:14:28.554Z,76.97
2018-11-04T21:16:59.250Z,72.60
2018-11-04T21:19:29.917Z,72.40
2018-11-04T21:22:01.031Z,76.13
2018-11-04T21:24:31.839Z,69.67
2018-11-04T21:27:03.151Z,68.13
2018-11-04T21:29:34.443Z,66.20
2018-11-04T21:32:05.572Z,68.47
2018-11-04T21:34:36.892Z,63.70
2018-11-04T21:37:07.940Z,60.87
2018-11-04T21:39:38.477Z,58.87
2018-11-04T21:42:09.587Z,59.73
2018-11-04T21:44:41.013Z,59.00
2018-11-04T21:47:12.099Z,55.83
2018-11-04T21:49:43.263Z,54.53
2018-11-04T21:52:14.448Z,45.57
2018-11-04T21:54:45.849Z,42.67
2018-11-04T21:57:16.986Z,38.60
2018-11-04T21:59:48.017Z,35.67
2018-11-04T22:02:19.244Z,35.97
2018-11-04T22:04:50.312Z,33.97
2018-11-04T22:07:21.437Z,31.77
2018-11-04T22:09:51.379Z,31.03
2018-11-04T22:12:22.147Z,31.13
2018-11-04T22:14:53.178Z,30.67
2018-11-04T22:17:24.115Z,33.87
2018-11-04T22:19:55.528Z,30.90
2018-11-04T22:22:26.767Z,30.57
2018-11-04T22:24:57.540Z,27.43
2018-11-04T22:27:28.420Z,26.30
2018-11-04T22:29:59.972Z,25.97
2018-11-04T22:32:30.590Z,26.93
2018-11-04T22:35:01.374Z,25.27
2018-11-04T22:37:32.319Z,26.30
2018-11-04T22:40:03.180Z,25.97
2018-11-04T22:42:33.545Z,23.90
2018-11-04T22:45:04.223Z,23.73
2018-11-04T22:47:35.356Z,23.47
2018-11-04T22:50:07.982Z,22.93
2018-11-04T22:52:40.826Z,23.53
2018-11-04T22:55:12.618Z,24.40
2018-11-04T22:57:44.016Z,25.83
2018-11-04T23:00:19.931Z,23.77
2018-11-04T23:02:51.224Z,21.87
2018-11-04T23:05:28.221Z,20.30
2018-11-04T23:07:58.933Z,20.87
2018-11-04T23:10:29.701Z,19.60
2018-11-04T23:13:00.529Z,19.23
2018-11-04T23:15:31.271Z,20.03
2018-11-04T23:18:01.380Z,18.67
2018-11-04T23:20:31.583Z,18.33
2018-11-04T23:23:03.156Z,19.37
2018-11-04T23:25:34.030Z,19.93
2018-11-04T23:28:04.926Z,20.30
2018-11-04T23:30:35.609Z,17.70
2018-11-04T23:33:05.909Z,19.30
2018-11-04T23:35:36.925Z,17.93
2018-11-04T23:38:07.553Z,18.67
2018-11-04T23:40:37.939Z,21.67
2018-11-04T23:43:08.422Z,22.97
2018-11-04T23:45:38.687Z,22.70
2018-11-04T23:48:09.455Z,21.37
2018-11-04T23:50:39.564Z,19.90
2018-11-04T23:53:09.865Z,20.70
2018-11-04T23:55:40.610Z,19.17
2018-11-04T23:58:11.854Z,20.07
